createdAt,value
2018-11-23T00:01:10.234Z,23.32
2018-11-23T00:06:13.491Z,23.60
2018-11-23T00:11:16.725Z,23.75
2018-11-23T00:16:19.980Z,22.85
2018-11-23T00:21:23.211Z,23.18
2018-11-23T00:26:26.429Z,23.87
2018-11-23T00:31:29.634Z,21.95
2018-11-23T00:36:32.871Z,20.97
2018-11-23T00:41:36.242Z,19.45
2018-11-23T00:46:39.466Z,19.60
2018-11-23T00:51:42.702Z,19.73
2018-11-23T00:56:45.920Z,19.32
2018-11-23T01:01:54.484Z,19.52
2018-11-23T01:06:57.692Z,19.57
2018-11-23T01:12:00.924Z,19.65
2018-11-23T01:17:04.160Z,19.00
2018-11-23T01:22:07.385Z,19.57
2018-11-23T01:27:10.621Z,20.32
2018-11-23T01:32:13.844Z,19.98
2018-11-23T01:37:17.063Z,18.75
2018-11-23T01:42:20.276Z,20.70
2018-11-23T01:47:23.601Z,21.37
2018-11-23T01:52:26.829Z,20.68
2018-11-23T01:57:30.040Z,20.00
2018-11-23T02:02:33.237Z,20.70
2018-11-23T02:07:36.860Z,21.30
2018-11-23T02:12:40.041Z,21.33
2018-11-23T02:17:43.420Z,22.80
2018-11-23T02:22:46.642Z,23.05
2018-11-23T02:27:49.834Z,22.30
2018-11-23T02:32:53.040Z,23.47
2018-11-23T02:37:56.203Z,23.98
2018-11-23T02:42:59.391Z,22.70
2018-11-23T02:48:02.616Z,22.77
2018-11-23T02:53:05.809Z,24.23
2018-11-23T02:58:08.980Z,24.87
2018-11-23T03:03:12.160Z,26.33
2018-11-23T03:08:15.324Z,23.60
2018-11-23T03:13:18.524Z,22.62
2018-11-23T03:18:21.731Z,20.73
2018-11-23T03:23:24.900Z,18.85
2018-11-23T03:28:28.085Z,19.67
2018-11-23T03:33:31.279Z,19.77
2018-11-23T03:38:34.496Z,19.32
2018-11-23T03:43:37.698Z,18.40
2018-11-23T03:48:41.092Z,18.87
2018-11-23T03:53:44.276Z,17.73
2018-11-23T03:58:47.477Z,19.92
2018-11-23T04:03:50.672Z,21.77
2018-11-23T04:08:53.857Z,24.10
2018-11-23T04:13:57.057Z,25.48
2018-11-23T04:19:00.268Z,26.62
2018-11-23T04:24:03.448Z,27.50
2018-11-23T04:29:06.676Z,27.20
2018-11-23T04:34:09.895Z,26.77
2018-11-23T04:39:13.061Z,28.70
2018-11-23T04:44:16.233Z,27.07
2018-11-23T04:49:19.438Z,27.37
2018-11-23T04:54:22.648Z,26.68
2018-11-23T04:59:25.821Z,27.33
2018-11-23T05:04:29.051Z,25.70
2018-11-23T05:09:32.253Z,25.12
2018-11-23T05:14:35.437Z,26.70
2018-11-23T05:19:38.641Z,27.07
2018-11-23T05:24:41.887Z,24.55
2018-11-23T05:29:45.080Z,24.77
2018-11-23T05:34:48.315Z,23.60
2018-11-23T05:39:51.543Z,29.73
2018-11-23T05:44:54.828Z,25.02
2018-11-23T05:49:58.064Z,28.90
2018-11-23T05:55:01.364Z,30.07
2018-11-23T06:00:07.069Z,29.10
2018-11-23T06:05:10.259Z,32.15
2018-11-23T06:10:14.931Z,28.60
2018-11-23T06:15:19.495Z,30.72
2018-11-23T06:20:24.257Z,29.67
2018-11-23T06:25:42.800Z,27.77
2018-11-23T06:30:46.030Z,30.30
2018-11-23T06:35:49.221Z,28.60
2018-11-23T06:40:52.576Z,27.90
2018-11-23T06:45:56.480Z,30.27
2018-11-23T06:50:59.732Z,28.95
2018-11-23T06:56:03.618Z,29.20
2018-11-23T07:01:06.859Z,30.10
2018-11-23T07:06:10.340Z,25.73
2018-11-23T07:11:13.525Z,26.95
2018-11-23T07:16:16.691Z,28.40
2018-11-23T07:21:21.574Z,30.43
2018-11-23T07:26:23.100Z,26.80
2018-11-23T07:31:26.305Z,28.85
2018-11-23T07:36:29.476Z,28.57
2018-11-23T07:41:44.167Z,28.67
2018-11-23T07:46:47.327Z,26.90
2018-11-23T07:51:50.612Z,25.30
2018-11-23T07:56:54.034Z,22.15
2018-11-23T08:01:57.345Z,21.33
2018-11-23T08:07:00.542Z,20.33
2018-11-23T08:12:04.022Z,18.20
2018-11-23T08:17:07.288Z,18.70
2018-11-23T08:22:10.612Z,22.00
2018-11-23T08:27:13.813Z,20.47
2018-11-23T08:32:17.036Z,23.57
2018-11-23T08:37:20.301Z,22.70
2018-11-23T08:42:23.463Z,21.57
2018-11-23T08:47:26.752Z,19.75
2018-11-23T08:52:30.053Z,20.85
2018-11-23T08:57:33.239Z,21.30
2018-11-23T09:02:36.434Z,19.05
2018-11-23T09:07:39.607Z,19.25
2018-11-23T09:12:43.727Z,19.57
2018-11-23T09:17:46.988Z,18.75
2018-11-23T09:22:50.240Z,18.37
2018-11-23T09:27:53.552Z,29.40
2018-11-23T09:32:57.223Z,17.30
2018-11-23T09:38:00.461Z,18.27
2018-11-23T09:43:03.880Z,17.37
2018-11-23T09:48:07.326Z,16.50
2018-11-23T09:53:10.552Z,16.93
2018-11-23T09:58:13.732Z,17.52
2018-11-23T10:03:17.019Z,16.80
2018-11-23T10:08:20.233Z,17.82
2018-11-23T10:13:23.417Z,18.25
2018-11-23T10:18:26.588Z,17.70
2018-11-23T10:23:29.777Z,17.37
2018-11-23T10:28:32.971Z,16.97
2018-11-23T10:33:36.389Z,17.97
2018-11-23T10:38:39.564Z,18.25
2018-11-23T10:43:42.741Z,18.57
2018-11-23T10:48:45.923Z,17.87
2018-11-23T10:53:49.149Z,18.57
2018-11-23T10:58:52.334Z,18.52
2018-11-23T11:05:03.492Z,18.32
2018-11-23T11:10:06.935Z,17.73
2018-11-23T11:15:10.112Z,18.32
2018-11-23T11:20:13.271Z,19.65
2018-11-23T11:25:16.447Z,18.48
2018-11-23T11:30:19.863Z,18.80
2018-11-23T11:35:23.033Z,19.55
2018-11-23T11:40:26.196Z,19.05
2018-11-23T11:45:29.384Z,19.05
2018-11-23T11:50:32.552Z,19.25
2018-11-23T11:55:35.732Z,19.00
2018-11-23T12:00:38.916Z,18.80
2018-11-23T12:05:42.136Z,17.67
2018-11-23T12:10:45.308Z,19.27
2018-11-23T12:15:48.554Z,19.50
2018-11-23T12:20:51.840Z,20.20
2018-11-23T12:25:55.028Z,20.17
2018-11-23T12:30:58.239Z,20.00
2018-11-23T12:36:01.533Z,24.80
2018-11-23T12:41:04.752Z,20.33
2018-11-23T12:46:07.940Z,19.37
2018-11-23T12:51:11.129Z,19.80
2018-11-23T12:56:14.316Z,20.13
2018-11-23T13:01:17.499Z,20.40
2018-11-23T13:06:20.752Z,20.93
2018-11-23T13:11:23.932Z,27.07
2018-11-23T13:16:27.105Z,22.60
2018-11-23T13:21:30.300Z,22.80
2018-11-23T13:26:34.143Z,21.52
2018-11-23T13:31:37.401Z,18.87
2018-11-23T13:36:40.630Z,21.55
2018-11-23T13:41:43.860Z,20.48
2018-11-23T13:46:47.940Z,22.05
2018-11-23T13:51:51.278Z,20.85
2018-11-23T13:56:54.527Z,21.35
2018-11-23T14:01:57.760Z,20.43
2018-11-23T14:07:01.003Z,21.52
2018-11-23T14:12:04.245Z,21.42
2018-11-23T14:17:07.626Z,22.17
2018-11-23T14:22:11.048Z,20.02
2018-11-23T14:27:14.449Z,19.32
2018-11-23T14:32:17.664Z,22.37
2018-11-23T14:37:20.911Z,21.67
2018-11-23T14:42:24.135Z,22.33
2018-11-23T14:47:27.383Z,22.60
2018-11-23T14:52:30.602Z,22.83
2018-11-23T14:57:33.885Z,24.83
2018-11-23T15:02:37.148Z,23.60
2018-11-23T15:07:40.384Z,24.23
2018-11-23T15:12:44.275Z,24.50
2018-11-23T15:17:48.588Z,24.00
2018-11-23T15:22:54.563Z,26.53
2018-11-23T15:27:57.847Z,27.17
2018-11-23T15:33:01.697Z,23.77
2018-11-23T15:38:09.961Z,25.70
2018-11-23T15:43:10.261Z,24.87
2018-11-23T15:48:13.472Z,25.00
2018-11-23T15:53:17.071Z,26.80
2018-11-23T15:58:20.343Z,25.27
2018-11-23T16:03:23.540Z,25.68
2018-11-23T16:08:26.819Z,26.42
2018-11-23T16:13:30.181Z,25.90
2018-11-23T16:18:33.692Z,26.47
2018-11-23T16:23:36.904Z,25.82
2018-11-23T16:28:40.170Z,24.98
2018-11-23T16:33:43.359Z,25.35
2018-11-23T16:38:46.588Z,25.62
2018-11-23T16:43:49.884Z,24.35
2018-11-23T16:48:53.055Z,25.60
2018-11-23T16:53:56.419Z,25.23
2018-11-23T16:58:59.759Z,25.90
2018-11-23T17:04:02.952Z,25.20
2018-11-23T17:09:07.169Z,23.75
2018-11-23T17:14:10.453Z,25.62
2018-11-23T17:19:13.660Z,25.82
2018-11-23T17:24:16.843Z,25.55
2018-11-23T17:29:23.130Z,23.67
2018-11-23T17:34:23.321Z,25.02
2018-11-23T17:39:26.524Z,24.52
2018-11-23T17:44:29.825Z,20.52
2018-11-23T17:49:33.032Z,23.87
2018-11-23T17:54:36.395Z,24.85
2018-11-23T17:59:45.749Z,25.88
2018-11-23T18:04:49.645Z,19.50
2018-11-23T18:09:52.888Z,21.35
2018-11-23T18:14:56.096Z,26.33
2018-11-23T18:19:59.309Z,26.90
2018-11-23T18:25:02.546Z,25.80
2018-11-23T18:30:07.233Z,26.87
2018-11-23T18:35:11.572Z,25.25
2018-11-23T18:40:14.837Z,27.70
2018-11-23T18:45:18.051Z,28.85
2018-11-23T18:50:21.294Z,27.22
2018-11-23T18:55:24.661Z,28.42
2018-11-23T19:00:28.105Z,26.82
2018-11-23T19:05:31.469Z,26.73
2018-11-23T19:10:34.832Z,26.12
2018-11-23T19:15:38.241Z,28.47
2018-11-23T19:20:41.642Z,27.73
2018-11-23T19:25:44.937Z,26.27
2018-11-23T19:30:48.135Z,27.42
2018-11-23T19:35:51.341Z,27.50
2018-11-23T19:40:54.520Z,28.80
2018-11-23T19:45:57.862Z,30.10
2018-11-23T19:51:01.017Z,30.20
2018-11-23T19:56:04.389Z,30.80
2018-11-23T20:01:07.566Z,31.85
2018-11-23T20:06:10.744Z,31.53
2018-11-23T20:11:13.915Z,31.75
2018-11-23T20:16:17.131Z,31.50
2018-11-23T20:21:20.557Z,33.65
2018-11-23T20:26:23.919Z,34.37
2018-11-23T20:31:27.367Z,33.85
2018-11-23T20:36:30.610Z,35.80
2018-11-23T20:41:33.914Z,35.67
2018-11-23T20:46:37.460Z,35.92
2018-11-23T20:51:40.639Z,33.47
2018-11-23T20:56:43.959Z,36.43
2018-11-23T21:01:47.229Z,39.60
2018-11-23T21:06:50.443Z,39.78
2018-11-23T21:11:53.681Z,38.93
2018-11-23T21:16:57.091Z,43.17
2018-11-23T21:22:00.509Z,41.08
2018-11-23T21:27:03.940Z,41.80
2018-11-23T21:32:07.320Z,39.95
2018-11-23T21:37:10.530Z,40.80
2018-11-23T21:42:13.764Z,40.57
2018-11-23T21:47:16.991Z,42.83
2018-11-23T21:52:20.218Z,39.95
2018-11-23T21:57:23.416Z,38.67
2018-11-23T22:02:26.635Z,39.65
2018-11-23T22:07:29.868Z,42.65
2018-11-23T22:12:33.112Z,42.62
2018-11-23T22:17:36.390Z,40.97
2018-11-23T22:22:39.645Z,43.73
2018-11-23T22:27:43.004Z,42.43
2018-11-23T22:32:46.229Z,42.90
2018-11-23T22:37:49.454Z,42.13
2018-11-23T22:42:54.968Z,45.15
2018-11-23T22:47:58.181Z,45.30
2018-11-23T22:53:01.413Z,42.40
2018-11-23T22:58:04.634Z,43.78
2018-11-23T23:03:07.913Z,48.73
2018-11-23T23:08:11.147Z,44.35
2018-11-23T23:13:14.424Z,43.95
2018-11-23T23:18:17.639Z,45.63
2018-11-23T23:23:20.864Z,46.50
2018-11-23T23:28:24.105Z,41.08
2018-11-23T23:33:27.279Z,46.40
2018-11-23T23:38:30.479Z,46.27
2018-11-23T23:43:33.759Z,46.80
2018-11-23T23:48:36.955Z,42.43
2018-11-23T23:53:40.152Z,49.63
2018-11-23T23:58:43.328Z,47.70
